createdAt,value
2022-10-02T00:01:56.802Z,9.83
2022-10-02T00:07:04.054Z,9.78
2022-10-02T00:12:08.844Z,9.72
2022-10-02T00:17:33.548Z,9.55
2022-10-02T00:22:47.415Z,9.42
2022-10-02T00:28:16.453Z,9.34
2022-10-02T00:33:29.462Z,9.42
2022-10-02T00:38:49.412Z,9.41
2022-10-02T00:44:08.408Z,9.38
2022-10-02T00:49:40.342Z,9.35
2022-10-02T00:55:19.026Z,9.44
2022-10-02T01:00:23.041Z,9.53
2022-10-02T01:05:25.764Z,9.53
2022-10-02T01:10:28.531Z,9.59
2022-10-02T01:15:34.753Z,9.63
2022-10-02T01:20:42.162Z,9.63
2022-10-02T01:25:43.865Z,9.58
2022-10-02T01:30:50.701Z,9.58
2022-10-02T01:35:52.504Z,9.48
2022-10-02T01:40:54.083Z,9.41
2022-10-02T01:46:31.936Z,9.26
2022-10-02T01:51:56.427Z,9.12
2022-10-02T01:57:10.495Z,8.93
2022-10-02T02:02:26.517Z,8.90
2022-10-02T02:07:43.936Z,8.97
2022-10-02T02:13:07.940Z,8.86
2022-10-02T02:18:35.684Z,9.06
2022-10-02T02:23:40.372Z,9.03
2022-10-02T02:28:47.086Z,9.02
2022-10-02T02:33:55.364Z,9.01
2022-10-02T02:39:03.241Z,8.97
2022-10-02T02:44:13.223Z,8.89
2022-10-02T02:49:14.948Z,8.82
2022-10-02T02:54:26.296Z,8.83
2022-10-02T02:59:32.646Z,8.81
2022-10-02T03:04:34.212Z,8.88
2022-10-02T03:09:37.834Z,8.89
2022-10-02T03:15:09.054Z,8.80
2022-10-02T03:20:24.194Z,8.75
2022-10-02T03:25:31.831Z,8.81
2022-10-02T03:30:35.477Z,8.77
2022-10-02T03:35:38.334Z,8.66
2022-10-02T03:40:40.303Z,8.28
2022-10-02T03:45:57.016Z,8.14
2022-10-02T03:50:59.094Z,8.40
2022-10-02T03:56:13.530Z,8.47
2022-10-02T04:01:27.225Z,8.34
2022-10-02T04:06:37.115Z,8.41
2022-10-02T04:11:43.846Z,8.50
2022-10-02T04:16:57.608Z,8.63
2022-10-02T04:22:14.516Z,8.63
2022-10-02T04:27:26.518Z,8.54
2022-10-02T04:32:32.217Z,8.59
2022-10-02T04:38:15.563Z,8.51
2022-10-02T04:43:31.648Z,8.40
2022-10-02T04:49:05.627Z,8.39
2022-10-02T04:54:25.767Z,8.38
2022-10-02T04:59:44.211Z,8.35
2022-10-02T05:05:24.346Z,8.36
2022-10-02T05:10:47.634Z,8.36
2022-10-02T05:16:15.698Z,8.43
2022-10-02T05:21:54.388Z,8.66
2022-10-02T05:27:11.161Z,8.82
2022-10-02T05:32:37.605Z,9.00
2022-10-02T05:38:22.544Z,9.20
2022-10-02T05:43:48.887Z,9.35
2022-10-02T05:49:17.578Z,9.49
2022-10-02T05:54:40.011Z,9.75
2022-10-02T05:59:45.974Z,9.96
2022-10-02T06:04:57.347Z,10.24
2022-10-02T06:10:16.130Z,10.47
2022-10-02T06:15:34.361Z,10.65
2022-10-02T06:20:48.899Z,10.51
2022-10-02T06:25:53.593Z,10.43
2022-10-02T06:31:21.323Z,10.45
2022-10-02T06:36:35.210Z,10.53
2022-10-02T06:41:47.357Z,10.71
2022-10-02T06:47:16.515Z,10.88
2022-10-02T06:52:26.157Z,11.07
2022-10-02T06:57:52.509Z,11.16
2022-10-02T07:03:27.199Z,11.32
2022-10-02T07:08:52.923Z,11.50
2022-10-02T07:14:16.533Z,11.70
2022-10-02T07:19:38.832Z,11.84
2022-10-02T07:25:14.016Z,12.04
2022-10-02T07:30:17.878Z,12.27
2022-10-02T07:35:48.763Z,12.44
2022-10-02T07:41:02.455Z,12.64
2022-10-02T07:46:41.983Z,12.80
2022-10-02T07:51:58.065Z,13.03
2022-10-02T07:57:10.302Z,13.09
2022-10-02T08:02:25.077Z,13.46
2022-10-02T08:07:28.656Z,13.72
2022-10-02T08:12:56.657Z,13.85
2022-10-02T08:18:22.916Z,14.40
2022-10-02T08:23:44.352Z,14.32
2022-10-02T08:29:11.939Z,14.02
2022-10-02T08:34:17.010Z,14.11
2022-10-02T08:39:37.309Z,14.35
2022-10-02T08:44:51.080Z,13.98
2022-10-02T08:50:30.054Z,13.69
2022-10-02T08:56:05.285Z,14.42
2022-10-02T09:01:09.940Z,14.74
2022-10-02T09:06:30.585Z,14.31
2022-10-02T09:11:37.267Z,14.42
2022-10-02T09:16:47.644Z,14.77
2022-10-02T09:21:56.149Z,14.89
2022-10-02T09:27:26.034Z,14.84
2022-10-02T09:32:34.648Z,14.98
2022-10-02T09:37:51.874Z,14.76
2022-10-02T09:43:35.631Z,14.63
2022-10-02T09:49:02.891Z,14.58
2022-10-02T09:54:29.565Z,14.28
2022-10-02T09:59:46.356Z,14.07
2022-10-02T10:05:34.626Z,14.48
2022-10-02T10:10:43.308Z,14.64
2022-10-02T10:16:03.105Z,14.77
2022-10-02T10:21:14.628Z,14.86
2022-10-02T10:26:52.144Z,14.62
2022-10-02T10:32:15.573Z,14.60
2022-10-02T10:38:11.261Z,14.40
2022-10-02T10:43:43.152Z,14.03
2022-10-02T10:49:15.463Z,13.57
2022-10-02T10:54:22.953Z,12.58
2022-10-02T10:59:42.323Z,11.91
2022-10-02T11:05:15.516Z,11.17
2022-10-02T11:10:54.296Z,10.51
2022-10-02T11:16:09.038Z,10.39
2022-10-02T11:21:22.732Z,10.62
2022-10-02T11:26:47.970Z,10.57
2022-10-02T11:32:19.364Z,10.50
2022-10-02T11:37:37.792Z,10.93
2022-10-02T11:43:00.975Z,11.50
2022-10-02T11:48:39.074Z,11.73
2022-10-02T11:54:01.896Z,12.57
2022-10-02T11:59:18.783Z,13.13
2022-10-02T12:04:55.013Z,14.31
2022-10-02T12:10:39.436Z,15.74
2022-10-02T12:15:46.857Z,15.62
2022-10-02T12:21:25.444Z,15.55
2022-10-02T12:26:48.651Z,15.73
2022-10-02T12:32:08.203Z,16.33
2022-10-02T12:37:15.723Z,17.10
2022-10-02T12:42:26.629Z,17.65
2022-10-02T12:47:49.879Z,17.29
2022-10-02T12:53:29.732Z,16.62
2022-10-02T12:58:42.518Z,15.72
2022-10-02T13:03:59.333Z,15.71
2022-10-02T13:09:17.993Z,15.83
2022-10-02T13:14:37.822Z,16.08
2022-10-02T13:19:42.327Z,16.31
2022-10-02T13:24:58.354Z,15.77
2022-10-02T13:30:06.640Z,15.88
2022-10-02T13:35:44.385Z,15.95
2022-10-02T13:40:46.182Z,15.00
2022-10-02T13:46:17.418Z,14.60
2022-10-02T13:51:36.161Z,14.66
2022-10-02T13:57:14.723Z,14.83
2022-10-02T14:03:00.148Z,14.33
2022-10-02T14:08:23.133Z,14.08
2022-10-02T14:13:36.178Z,13.70
2022-10-02T14:19:19.152Z,13.26
2022-10-02T14:24:51.835Z,13.15
2022-10-02T14:30:10.138Z,13.44
2022-10-02T14:35:46.263Z,14.27
2022-10-02T14:40:50.747Z,14.96
2022-10-02T14:46:04.741Z,14.81
2022-10-02T14:51:36.765Z,14.83
2022-10-02T14:57:20.107Z,14.57
2022-10-02T15:02:21.875Z,14.12
2022-10-02T15:07:28.243Z,13.68
2022-10-02T15:12:35.810Z,13.47
2022-10-02T15:17:57.473Z,13.26
2022-10-02T15:23:01.958Z,13.19
2022-10-02T15:28:37.335Z,12.84
2022-10-02T15:34:11.113Z,12.66
2022-10-02T15:39:18.850Z,12.61
2022-10-02T15:44:39.102Z,12.55
2022-10-02T15:49:53.276Z,12.42
2022-10-02T15:55:07.941Z,12.27
2022-10-02T16:00:16.873Z,12.11
2022-10-02T16:05:38.859Z,11.91
2022-10-02T16:11:07.016Z,11.78
2022-10-02T16:16:32.055Z,11.58
2022-10-02T16:28:08.039Z,10.98
2022-10-02T16:33:45.760Z,10.84
2022-10-02T16:38:56.337Z,10.56
2022-10-02T16:44:47.171Z,10.62
2022-10-02T16:50:10.529Z,10.86
2022-10-02T16:55:30.816Z,10.98
2022-10-02T17:00:39.606Z,11.09
2022-10-02T17:06:14.047Z,11.24
2022-10-02T17:11:22.710Z,11.47
2022-10-02T17:16:55.921Z,11.54
2022-10-02T17:22:13.737Z,11.44
2022-10-02T17:27:47.262Z,11.44
2022-10-02T17:33:16.009Z,11.37
2022-10-02T17:38:29.756Z,11.31
2022-10-02T17:43:37.264Z,11.24
2022-10-02T17:48:52.115Z,11.05
2022-10-02T17:54:41.935Z,10.94
2022-10-02T18:00:08.733Z,10.78
2022-10-02T18:05:34.430Z,10.53
2022-10-02T18:10:57.315Z,10.41
2022-10-02T18:16:22.223Z,10.34
2022-10-02T18:21:39.300Z,10.18
2022-10-02T18:26:59.676Z,10.09
2022-10-02T18:32:12.880Z,9.90
2022-10-02T18:37:17.328Z,9.66
2022-10-02T18:43:02.274Z,9.89
2022-10-02T18:48:33.677Z,10.09
2022-10-02T18:54:19.858Z,10.10
2022-10-02T18:59:26.575Z,9.99
2022-10-02T19:04:28.120Z,9.98
2022-10-02T19:09:33.490Z,10.14
2022-10-02T19:14:41.183Z,10.27
2022-10-02T19:19:44.617Z,10.38
2022-10-02T19:24:49.612Z,10.67
2022-10-02T19:30:26.701Z,10.79
2022-10-02T19:35:38.693Z,10.88
2022-10-02T19:40:43.227Z,10.75
2022-10-02T19:45:56.569Z,10.81
2022-10-02T19:51:04.481Z,10.72
2022-10-02T19:56:24.249Z,10.58
2022-10-02T20:01:32.701Z,10.65
2022-10-02T20:06:39.728Z,10.66
2022-10-02T20:11:43.079Z,10.81
2022-10-02T20:17:03.537Z,10.92
2022-10-02T20:22:36.897Z,10.95
2022-10-02T20:27:47.163Z,10.99
2022-10-02T20:32:57.765Z,10.93
2022-10-02T20:38:02.964Z,10.76
2022-10-02T20:43:15.414Z,10.61
2022-10-02T20:49:09.736Z,10.45
2022-10-02T20:54:42.358Z,10.42
2022-10-02T21:00:15.890Z,10.32
2022-10-02T21:05:17.399Z,10.18
2022-10-02T21:10:40.593Z,10.00
2022-10-02T21:15:51.808Z,9.75
2022-10-02T21:21:31.145Z,9.64
2022-10-02T21:26:58.793Z,9.69
2022-10-02T21:32:28.817Z,9.57
2022-10-02T21:37:44.658Z,9.60
2022-10-02T21:43:15.216Z,9.34
2022-10-02T21:48:40.960Z,9.50
2022-10-02T21:54:12.874Z,9.71
2022-10-02T21:59:24.685Z,9.75
2022-10-02T22:04:39.326Z,9.79
2022-10-02T22:09:44.576Z,9.81
2022-10-02T22:14:53.987Z,9.98
2022-10-02T22:20:01.363Z,10.05
2022-10-02T22:25:18.286Z,10.02
2022-10-02T22:30:24.918Z,10.07
2022-10-02T22:35:45.151Z,10.11
2022-10-02T22:40:51.399Z,10.10
2022-10-02T22:46:05.324Z,10.08
2022-10-02T22:51:21.897Z,10.15
2022-10-02T22:56:51.594Z,10.15
2022-10-02T23:01:59.297Z,10.25
2022-10-02T23:07:13.044Z,10.26
2022-10-02T23:12:47.317Z,10.31
2022-10-02T23:18:19.241Z,10.21
2022-10-02T23:23:50.988Z,10.23
2022-10-02T23:29:14.355Z,10.24
2022-10-02T23:34:34.413Z,10.23
2022-10-02T23:39:58.573Z,10.22
2022-10-02T23:45:08.458Z,10.19
2022-10-02T23:51:02.896Z,10.15
2022-10-02T23:56:32.194Z,10.13
